createdAt,value
2022-11-08T00:02:23.305Z,100636.25
2022-11-08T00:04:49.821Z,100628.66
2022-11-08T00:07:34.741Z,100615.69
2022-11-08T00:10:19.518Z,100604.19
2022-11-08T00:13:04.298Z,100607.25
2022-11-08T00:15:33.414Z,100629.50
2022-11-08T00:17:59.878Z,100632.38
2022-11-08T00:20:26.344Z,100629.69
2022-11-08T00:22:52.812Z,100622.09
2022-11-08T00:25:19.187Z,100620.44
2022-11-08T00:27:45.527Z,100615.91
2022-11-08T00:30:12.076Z,100626.03
2022-11-08T00:32:38.421Z,100623.56
2022-11-08T00:35:05.239Z,100620.25
2022-11-08T00:37:31.602Z,100617.59
2022-11-08T00:39:57.946Z,100619.66
2022-11-08T00:42:24.390Z,100615.31
2022-11-08T00:44:50.803Z,100611.59
2022-11-08T00:47:17.141Z,100612.03
2022-11-08T00:49:43.511Z,100616.78
2022-11-08T00:52:09.890Z,100607.28
2022-11-08T00:54:36.249Z,100604.22
2022-11-08T00:57:02.738Z,100606.50
2022-11-08T00:59:29.132Z,100605.03
2022-11-08T01:01:55.547Z,100597.84
2022-11-08T01:04:22.009Z,100594.31
2022-11-08T01:06:48.371Z,100590.00
2022-11-08T01:09:14.788Z,100577.63
2022-11-08T01:11:46.262Z,100588.34
2022-11-08T01:14:14.315Z,100583.00
2022-11-08T01:16:41.369Z,100574.38
2022-11-08T01:19:07.910Z,100578.28
2022-11-08T01:21:34.828Z,100564.66
2022-11-08T01:24:01.392Z,100558.91
2022-11-08T01:26:29.146Z,100558.91
2022-11-08T01:28:56.366Z,100560.78
2022-11-08T01:31:25.824Z,100558.13
2022-11-08T01:33:52.982Z,100536.31
2022-11-08T01:36:25.906Z,100545.75
2022-11-08T01:38:52.906Z,100547.78
2022-11-08T01:41:21.677Z,100546.34
2022-11-08T01:43:50.426Z,100543.25
2022-11-08T01:46:19.754Z,100536.25
2022-11-08T01:48:55.111Z,100528.84
2022-11-08T01:51:29.189Z,100506.44
2022-11-08T01:53:57.509Z,100516.06
2022-11-08T01:56:24.479Z,100524.72
2022-11-08T01:58:54.419Z,100516.28
2022-11-08T02:01:20.973Z,100520.41
2022-11-08T02:03:47.576Z,100516.50
2022-11-08T02:06:14.723Z,100522.91
2022-11-08T02:08:43.353Z,100521.22
2022-11-08T02:11:13.247Z,100510.97
2022-11-08T02:13:40.687Z,100517.34
2022-11-08T02:16:16.698Z,100522.31
2022-11-08T02:18:45.478Z,100518.41
2022-11-08T02:21:19.997Z,100520.28
2022-11-08T02:23:47.805Z,100510.41
2022-11-08T02:26:16.358Z,100514.31
2022-11-08T02:28:45.166Z,100512.47
2022-11-08T02:31:13.139Z,100507.13
2022-11-08T02:33:40.401Z,100504.25
2022-11-08T02:36:07.838Z,100505.31
2022-11-08T02:38:38.587Z,100508.81
2022-11-08T02:41:05.057Z,100496.28
2022-11-08T02:43:31.416Z,100495.47
2022-11-08T02:45:58.641Z,100484.59
2022-11-08T02:48:25.213Z,100490.97
2022-11-08T02:50:52.273Z,100472.84
2022-11-08T02:53:19.001Z,100486.41
2022-11-08T02:55:45.657Z,100472.84
2022-11-08T02:58:12.908Z,100484.16
2022-11-08T03:00:39.497Z,100467.47
2022-11-08T03:03:06.045Z,100472.44
2022-11-08T03:05:32.673Z,100465.84
2022-11-08T03:07:59.229Z,100453.09
2022-11-08T03:10:27.343Z,100454.34
2022-11-08T03:13:01.926Z,100423.06
2022-11-08T03:15:28.997Z,100437.28
2022-11-08T03:17:56.802Z,100433.16
2022-11-08T03:20:24.587Z,100438.09
2022-11-08T03:23:01.840Z,100405.00
2022-11-08T03:25:28.512Z,100412.00
2022-11-08T03:27:54.992Z,100413.00
2022-11-08T03:30:21.989Z,100399.84
2022-11-08T03:32:49.859Z,100401.72
2022-11-08T03:35:16.839Z,100399.06
2022-11-08T03:37:50.507Z,100399.47
2022-11-08T03:40:18.919Z,100391.44
2022-11-08T03:42:46.053Z,100384.66
2022-11-08T03:45:13.187Z,100376.44
2022-11-08T03:47:41.063Z,100379.72
2022-11-08T03:50:07.992Z,100379.50
2022-11-08T03:52:45.260Z,100365.31
2022-11-08T03:55:12.556Z,100365.75
2022-11-08T03:57:43.681Z,100372.53
2022-11-08T04:00:11.562Z,100362.84
2022-11-08T04:02:38.727Z,100364.09
2022-11-08T04:05:06.156Z,100371.69
2022-11-08T04:07:32.942Z,100362.84
2022-11-08T04:09:59.300Z,100355.66
2022-11-08T04:12:44.331Z,100358.34
2022-11-08T04:15:16.117Z,100367.78
2022-11-08T04:18:02.653Z,100363.06
2022-11-08T04:20:48.016Z,100363.69
2022-11-08T04:23:15.591Z,100347.88
2022-11-08T04:25:42.599Z,100360.38
2022-11-08T04:28:09.516Z,100349.91
2022-11-08T04:30:36.250Z,100351.13
2022-11-08T04:33:04.608Z,100334.69
2022-11-08T04:35:31.882Z,100327.69
2022-11-08T04:38:02.056Z,100327.91
2022-11-08T04:40:30.401Z,100306.56
2022-11-08T04:42:57.823Z,100320.13
2022-11-08T04:45:24.290Z,100321.16
2022-11-08T04:47:50.627Z,100307.59
2022-11-08T04:50:17.080Z,100305.94
2022-11-08T04:52:43.748Z,100307.78
2022-11-08T04:55:10.308Z,100304.72
2022-11-08T04:57:36.722Z,100303.25
2022-11-08T05:00:04.288Z,100302.06
2022-11-08T05:02:30.776Z,100295.47
2022-11-08T05:04:57.822Z,100294.63
2022-11-08T05:07:24.447Z,100290.56
2022-11-08T05:09:50.840Z,100293.41
2022-11-08T05:12:17.262Z,100286.84
2022-11-08T05:14:43.616Z,100268.78
2022-11-08T05:17:09.989Z,100274.72
2022-11-08T05:19:54.990Z,100272.28
2022-11-08T05:22:39.870Z,100276.16
2022-11-08T05:25:06.690Z,100265.03
2022-11-08T05:27:34.130Z,100273.28
2022-11-08T05:30:00.872Z,100264.03
2022-11-08T05:32:27.249Z,100268.75
2022-11-08T05:34:53.614Z,100257.66
2022-11-08T05:37:19.968Z,100249.63
2022-11-08T05:39:46.316Z,100250.88
2022-11-08T05:42:12.679Z,100246.13
2022-11-08T05:44:39.051Z,100235.47
2022-11-08T05:47:05.484Z,100238.53
2022-11-08T05:49:31.871Z,100241.19
2022-11-08T05:51:58.509Z,100245.53
2022-11-08T05:54:24.884Z,100232.56
2022-11-08T05:56:51.362Z,100221.06
2022-11-08T05:59:17.774Z,100223.94
2022-11-08T06:01:44.186Z,100230.13
2022-11-08T06:04:10.748Z,100231.75
2022-11-08T06:06:37.103Z,100216.13
2022-11-08T06:09:03.564Z,100224.56
2022-11-08T06:11:29.960Z,100220.22
2022-11-08T06:13:56.408Z,100214.88
2022-11-08T06:16:24.350Z,100213.66
2022-11-08T06:18:51.197Z,100211.19
2022-11-08T06:21:20.384Z,100217.16
2022-11-08T06:23:46.971Z,100215.28
2022-11-08T06:26:14.109Z,100207.88
2022-11-08T06:28:40.548Z,100189.22
2022-11-08T06:31:08.105Z,100197.63
2022-11-08T06:33:35.198Z,100202.13
2022-11-08T06:36:01.657Z,100207.66
2022-11-08T06:38:28.488Z,100207.06
2022-11-08T06:40:55.022Z,100196.16
2022-11-08T06:43:21.836Z,100192.69
2022-11-08T06:45:48.641Z,100195.13
2022-11-08T06:48:15.131Z,100202.94
2022-11-08T06:50:43.502Z,100201.06
2022-11-08T06:53:12.939Z,100207.41
2022-11-08T06:55:39.787Z,100194.66
2022-11-08T06:58:06.510Z,100205.75
2022-11-08T07:00:32.912Z,100186.84
2022-11-08T07:03:01.123Z,100190.34
2022-11-08T07:05:29.234Z,100189.53
2022-11-08T07:07:59.992Z,100192.41
2022-11-08T07:10:30.238Z,100181.72
2022-11-08T07:13:08.161Z,100192.19
2022-11-08T07:15:37.352Z,100190.97
2022-11-08T07:18:09.810Z,100194.44
2022-11-08T07:20:36.962Z,100197.06
2022-11-08T07:23:05.692Z,100188.78
2022-11-08T07:25:32.236Z,100176.03
2022-11-08T07:28:00.600Z,100175.63
2022-11-08T07:30:27.791Z,100185.69
2022-11-08T07:32:55.818Z,100186.91
2022-11-08T07:35:22.544Z,100179.50
2022-11-08T07:37:49.058Z,100187.28
2022-11-08T07:40:15.552Z,100179.88
2022-11-08T07:43:10.247Z,100189.09
2022-11-08T07:45:29.244Z,100189.53
2022-11-08T07:48:09.479Z,100188.69
2022-11-08T07:50:37.825Z,100179.44
2022-11-08T07:53:05.264Z,100189.47
2022-11-08T07:55:31.706Z,100172.41
2022-11-08T07:58:02.147Z,100170.94
2022-11-08T08:00:29.839Z,100176.72
2022-11-08T08:03:00.338Z,100178.97
2022-11-08T08:05:28.435Z,100169.25
2022-11-08T08:07:59.185Z,100161.44
2022-11-08T08:10:28.067Z,100176.22
2022-11-08T08:12:55.683Z,100175.44
2022-11-08T08:15:22.356Z,100182.41
2022-11-08T08:17:49.053Z,100193.72
2022-11-08T08:20:15.709Z,100195.19
2022-11-08T08:22:51.119Z,100201.13
2022-11-08T08:25:18.457Z,100193.94
2022-11-08T08:27:53.183Z,100199.69
2022-11-08T08:30:20.134Z,100196.44
2022-11-08T08:32:53.499Z,100195.78
2022-11-08T08:35:24.268Z,100176.84
2022-11-08T08:37:50.710Z,100170.81
2022-11-08T08:40:17.098Z,100166.25
2022-11-08T08:42:43.492Z,100145.22
2022-11-08T08:45:14.658Z,100152.00
2022-11-08T08:47:41.613Z,100143.00
2022-11-08T08:50:08.353Z,100171.72
2022-11-08T08:52:34.753Z,100162.88
2022-11-08T08:55:01.139Z,100150.25
2022-11-08T08:57:27.624Z,100148.09
2022-11-08T09:02:42.444Z,100162.44
2022-11-08T09:05:10.365Z,100184.63
2022-11-08T09:07:36.784Z,100156.25
2022-11-08T09:10:05.053Z,100153.09
2022-11-08T09:12:31.886Z,100161.69
2022-11-08T09:14:58.298Z,100173.53
2022-11-08T09:17:24.933Z,100163.81
2022-11-08T09:19:56.813Z,100170.34
2022-11-08T09:22:23.661Z,100178.81
2022-11-08T09:24:50.088Z,100156.78
2022-11-08T09:27:16.596Z,100173.00
2022-11-08T09:29:42.973Z,100156.50
2022-11-08T09:32:09.376Z,100162.75
2022-11-08T09:34:35.767Z,100170.94
2022-11-08T09:37:02.199Z,100181.38
2022-11-08T09:39:28.571Z,100166.13
2022-11-08T09:42:02.055Z,100112.13
2022-11-08T09:44:45.131Z,100130.16
2022-11-08T09:47:33.518Z,100151.94
2022-11-08T09:50:12.481Z,100162.97
2022-11-08T09:52:41.633Z,100158.41
2022-11-08T09:55:40.576Z,100160.72
2022-11-08T09:58:28.029Z,100159.38
2022-11-08T10:00:54.737Z,100149.34
2022-11-08T10:03:24.653Z,100177.25
2022-11-08T10:05:59.727Z,100167.94
2022-11-08T10:08:33.995Z,100160.72
2022-11-08T10:11:09.199Z,100186.03
2022-11-08T10:14:11.159Z,100186.03
2022-11-08T10:16:47.487Z,100178.81
2022-11-08T10:19:53.331Z,100178.06
2022-11-08T10:22:32.517Z,100181.56
2022-11-08T10:25:09.391Z,100174.66
2022-11-08T10:27:40.957Z,100187.59
2022-11-08T10:30:18.149Z,100197.19
2022-11-08T10:32:50.413Z,100187.97
2022-11-08T10:35:25.066Z,100199.41
2022-11-08T10:37:56.083Z,100184.47
2022-11-08T10:40:44.159Z,100192.44
2022-11-08T10:43:16.760Z,100201.75
2022-11-08T10:45:43.238Z,100188.81
2022-11-08T10:48:11.855Z,100195.47
2022-11-08T10:50:48.044Z,100187.06
2022-11-08T10:53:32.865Z,100198.78
2022-11-08T10:56:01.607Z,100192.88
2022-11-08T10:58:31.473Z,100181.69
2022-11-08T11:01:23.320Z,100162.19
2022-11-08T11:03:51.988Z,100179.38
2022-11-08T11:06:33.345Z,100176.34
2022-11-08T11:09:03.201Z,100185.13
2022-11-08T11:11:32.371Z,100180.59
2022-11-08T11:14:19.428Z,100163.91
2022-11-08T11:16:58.292Z,100165.28
2022-11-08T11:19:29.521Z,100169.69
2022-11-08T11:22:01.718Z,100170.06
2022-11-08T11:24:28.409Z,100166.13
2022-11-08T11:26:57.521Z,100165.31
2022-11-08T11:29:29.747Z,100153.13
2022-11-08T11:31:56.652Z,100149.47
2022-11-08T11:34:28.731Z,100165.13
2022-11-08T11:37:01.856Z,100140.38
2022-11-08T11:40:05.617Z,100160.72
2022-11-08T11:42:46.102Z,100160.66
2022-11-08T11:45:36.885Z,100152.78
2022-11-08T11:48:13.289Z,100162.69
2022-11-08T11:50:44.369Z,100156.41
2022-11-08T11:53:33.839Z,100153.69
2022-11-08T11:56:18.421Z,100152.44
2022-11-08T11:58:51.058Z,100159.16
2022-11-08T12:01:46.070Z,100175.78
2022-11-08T12:04:31.009Z,100166.31
2022-11-08T12:07:05.450Z,100173.72
2022-11-08T12:09:53.827Z,100159.78
2022-11-08T12:12:31.457Z,100151.75
2022-11-08T12:15:23.886Z,100160.88
2022-11-08T12:18:42.637Z,100155.84
2022-11-08T12:21:12.421Z,100152.22
2022-11-08T12:23:54.756Z,100153.94
2022-11-08T12:26:32.608Z,100148.69
2022-11-08T12:29:14.919Z,100157.00
2022-11-08T12:31:49.228Z,100163.88
2022-11-08T12:34:28.732Z,100156.06
2022-11-08T12:37:04.818Z,100151.16
2022-11-08T12:39:34.916Z,100159.56
2022-11-08T12:42:26.077Z,100149.97
2022-11-08T12:45:16.242Z,100150.78
2022-11-08T12:47:45.626Z,100154.44
2022-11-08T12:50:21.069Z,100138.91
2022-11-08T12:53:07.556Z,100144.59
2022-11-08T12:55:40.140Z,100136.66
2022-11-08T12:58:24.594Z,100140.06
2022-11-08T13:00:54.531Z,100136.22
2022-11-08T13:03:37.360Z,100144.84
2022-11-08T13:06:24.366Z,100133.66
2022-11-08T13:09:20.265Z,100137.59
2022-11-08T13:12:12.456Z,100128.03
2022-11-08T13:14:41.451Z,100130.13
2022-11-08T13:17:22.970Z,100129.06
2022-11-08T13:19:52.056Z,100130.13
2022-11-08T13:22:33.706Z,100127.22
2022-11-08T13:25:27.201Z,100130.25
2022-11-08T13:27:54.347Z,100118.22
2022-11-08T13:30:20.671Z,100124.88
2022-11-08T13:32:54.955Z,100125.13
2022-11-08T13:35:35.580Z,100130.84
2022-11-08T13:38:31.590Z,100144.50
2022-11-08T13:41:21.024Z,100130.50
2022-11-08T13:43:49.223Z,100118.22
2022-11-08T13:46:28.032Z,100125.47
2022-11-08T13:49:05.073Z,100128.84
2022-11-08T13:51:38.960Z,100121.97
2022-11-08T13:54:30.994Z,100128.63
2022-11-08T13:57:02.563Z,100131.66
2022-11-08T13:59:31.996Z,100133.78
2022-11-08T14:01:59.237Z,100130.38
2022-11-08T14:04:28.091Z,100127.34
2022-11-08T14:07:19.566Z,100136.78
2022-11-08T14:10:26.861Z,100132.81
2022-11-08T14:13:19.663Z,100122.66
2022-11-08T14:15:55.452Z,100124.19
2022-11-08T14:18:27.546Z,100129.41
2022-11-08T14:20:55.162Z,100121.25
2022-11-08T14:23:39.162Z,100134.00
2022-11-08T14:26:21.543Z,100135.38
2022-11-08T14:28:49.880Z,100129.06
2022-11-08T14:31:31.882Z,100132.22
2022-11-08T14:34:00.307Z,100126.97
2022-11-08T14:36:29.522Z,100119.41
2022-11-08T14:38:58.810Z,100131.53
2022-11-08T14:41:27.891Z,100125.81
2022-11-08T14:43:57.058Z,100119.06
2022-11-08T14:46:43.779Z,100127.47
2022-11-08T14:49:20.219Z,100137.97
2022-11-08T14:51:46.924Z,100129.19
2022-11-08T14:54:27.112Z,100134.34
2022-11-08T14:56:54.822Z,100105.50
2022-11-08T14:59:23.784Z,100094.78
2022-11-08T15:01:50.819Z,100105.25
2022-11-08T15:04:20.824Z,100108.66
2022-11-08T15:06:51.629Z,100126.75
2022-11-08T15:09:24.026Z,100101.19
2022-11-08T15:11:54.353Z,100128.72
2022-11-08T15:14:24.028Z,100101.16
2022-11-08T15:16:55.318Z,100121.84
2022-11-08T15:19:29.505Z,100116.00
2022-11-08T15:21:57.217Z,100125.13
2022-11-08T15:24:40.698Z,100116.84
2022-11-08T15:27:09.886Z,100123.22
2022-11-08T15:30:00.510Z,100117.88
2022-11-08T15:32:28.597Z,100119.16
2022-11-08T15:34:56.588Z,100118.00
2022-11-08T15:37:36.675Z,100092.78
2022-11-08T15:40:06.046Z,100110.75
2022-11-08T15:42:34.800Z,100101.66
2022-11-08T15:45:05.405Z,100100.97
2022-11-08T15:47:38.682Z,100104.00
2022-11-08T15:50:24.882Z,100113.22
2022-11-08T15:52:55.374Z,100112.97
2022-11-08T15:55:31.233Z,100123.13
2022-11-08T15:58:00.827Z,100115.78
2022-11-08T16:00:31.595Z,100111.00
2022-11-08T16:02:58.794Z,100102.13
2022-11-08T16:05:31.853Z,100105.63
2022-11-08T16:07:58.397Z,100051.34
2022-11-08T16:10:30.777Z,100093.25
2022-11-08T16:13:00.800Z,100095.13
2022-11-08T16:15:34.151Z,100096.63
2022-11-08T16:18:02.205Z,100089.28
2022-11-08T16:20:34.073Z,100096.75
2022-11-08T16:23:02.863Z,100081.94
2022-11-08T16:25:33.901Z,100084.28
2022-11-08T16:28:08.358Z,100072.47
2022-11-08T16:30:35.461Z,100090.44
2022-11-08T16:33:02.739Z,100098.50
2022-11-08T16:35:29.181Z,100089.28
2022-11-08T16:37:55.593Z,100097.94
2022-11-08T16:40:24.261Z,100092.78
2022-11-08T16:42:52.936Z,100092.56
2022-11-08T16:45:43.340Z,100084.72
2022-11-08T16:48:16.363Z,100077.13
2022-11-08T16:50:43.561Z,100074.44
2022-11-08T16:53:21.500Z,100079.47
2022-11-08T16:55:48.002Z,100081.00
2022-11-08T16:58:14.500Z,100083.22
2022-11-08T17:00:42.643Z,100072.72
2022-11-08T17:03:16.606Z,100084.84
2022-11-08T17:05:43.106Z,100080.41
2022-11-08T17:08:09.459Z,100076.66
2022-11-08T17:10:37.113Z,100078.06
2022-11-08T17:13:03.566Z,100075.88
2022-11-08T17:15:29.966Z,100085.53
2022-11-08T17:17:58.396Z,100085.44
2022-11-08T17:20:25.957Z,100096.41
2022-11-08T17:22:52.459Z,100095.22
2022-11-08T17:25:21.350Z,100096.03
2022-11-08T17:27:49.954Z,100080.63
2022-11-08T17:30:20.166Z,100106.06
2022-11-08T17:32:48.865Z,100095.31
2022-11-08T17:35:15.451Z,100098.72
2022-11-08T17:37:41.827Z,100102.59
2022-11-08T17:40:09.336Z,100095.09
2022-11-08T17:42:38.302Z,100092.66
2022-11-08T17:45:09.535Z,100100.94
2022-11-08T17:47:36.806Z,100101.53
2022-11-08T17:50:03.938Z,100098.47
2022-11-08T17:52:30.360Z,100102.59
2022-11-08T17:54:56.820Z,100097.22
2022-11-08T17:57:23.288Z,100085.19
2022-11-08T17:59:50.437Z,100086.00
2022-11-08T18:02:17.360Z,100065.81
2022-11-08T18:04:43.891Z,100084.03
2022-11-08T18:07:10.383Z,100080.88
2022-11-08T18:09:36.786Z,100093.72
2022-11-08T18:12:03.368Z,100094.31
2022-11-08T18:14:29.918Z,100087.28
2022-11-08T18:16:56.827Z,100086.94
2022-11-08T18:19:23.530Z,100093.47
2022-11-08T18:21:50.244Z,100088.81
2022-11-08T18:24:16.897Z,100085.66
2022-11-08T18:26:43.290Z,100091.63
2022-11-08T18:29:09.706Z,100086.25
2022-11-08T18:31:36.810Z,100078.63
2022-11-08T18:34:03.261Z,100080.75
2022-11-08T18:36:31.186Z,100092.28
2022-11-08T18:39:01.414Z,100088.69
2022-11-08T18:41:30.961Z,100091.84
2022-11-08T18:43:59.301Z,100089.16
2022-11-08T18:46:28.348Z,100092.28
2022-11-08T18:48:55.328Z,100096.63
2022-11-08T18:51:22.898Z,100089.50
2022-11-08T18:53:50.023Z,100086.47
2022-11-08T18:56:16.652Z,100086.72
2022-11-08T18:58:44.786Z,100091.97
2022-11-08T19:01:11.777Z,100104.66
2022-11-08T19:03:38.613Z,100091.13
2022-11-08T19:06:06.512Z,100097.88
2022-11-08T19:08:33.493Z,100103.16
2022-11-08T19:11:06.423Z,100098.00
2022-11-08T19:13:34.404Z,100087.03
2022-11-08T19:16:05.537Z,100079.59
2022-11-08T19:18:33.436Z,100073.38
2022-11-08T19:21:05.616Z,100084.72
2022-11-08T19:23:33.049Z,100075.41
2022-11-08T19:26:05.476Z,100086.84
2022-11-08T19:28:34.997Z,100086.97
2022-11-08T19:31:01.637Z,100090.56
2022-11-08T19:33:30.450Z,100098.00
2022-11-08T19:36:08.294Z,100188.59
2022-11-08T19:38:36.469Z,100199.50
2022-11-08T19:41:08.834Z,100202.09
2022-11-08T19:43:37.269Z,100202.06
2022-11-08T19:46:05.766Z,100190.44
2022-11-08T19:48:35.808Z,100178.66
2022-11-08T19:51:04.063Z,100186.41
2022-11-08T19:53:30.827Z,100179.47
2022-11-08T19:56:01.521Z,100178.50
2022-11-08T19:58:28.409Z,100174.25
2022-11-08T20:00:55.303Z,100168.50
2022-11-08T20:03:21.889Z,100174.53
2022-11-08T20:05:52.459Z,100172.31
2022-11-08T20:08:19.998Z,100161.59
2022-11-08T20:10:47.140Z,100166.19
2022-11-08T20:13:13.603Z,100146.75
2022-11-08T20:15:40.169Z,100162.75
2022-11-08T20:18:06.711Z,100158.66
2022-11-08T20:20:33.150Z,100183.72
2022-11-08T20:22:59.575Z,100169.00
2022-11-08T20:25:26.123Z,100184.16
2022-11-08T20:27:52.506Z,100175.09
2022-11-08T20:30:19.031Z,100200.22
2022-11-08T20:32:45.466Z,100196.78
2022-11-08T20:35:11.837Z,100198.25
2022-11-08T20:37:38.229Z,100204.66
2022-11-08T20:40:05.134Z,100203.19
2022-11-08T20:42:31.540Z,100196.00
2022-11-08T20:44:57.990Z,100200.50
2022-11-08T20:47:24.401Z,100202.53
2022-11-08T20:49:50.820Z,100202.75
2022-11-08T20:52:22.078Z,100201.91
2022-11-08T20:54:49.639Z,100195.31
2022-11-08T20:57:16.105Z,100177.03
2022-11-08T20:59:42.486Z,100214.44
2022-11-08T21:02:11.570Z,100210.13
2022-11-08T21:04:38.366Z,100197.84
2022-11-08T21:08:00.741Z,100194.66
2022-11-08T21:09:59.087Z,100223.88
2022-11-08T21:12:38.205Z,100249.41
2022-11-08T21:15:04.918Z,100244.06
2022-11-08T21:17:31.378Z,100256.63
2022-11-08T21:19:57.746Z,100243.00
2022-11-08T21:22:24.140Z,100231.09
2022-11-08T21:24:50.563Z,100229.03
2022-11-08T21:27:17.366Z,100207.88
2022-11-08T21:29:43.842Z,100222.03
2022-11-08T21:32:10.232Z,100226.13
2022-11-08T21:34:36.700Z,100223.88
2022-11-08T21:37:03.279Z,100217.50
2022-11-08T21:39:29.726Z,100222.88
2022-11-08T21:41:56.095Z,100228.06
2022-11-08T21:44:22.529Z,100212.41
2022-11-08T21:46:48.970Z,100210.34
2022-11-08T21:49:16.442Z,100224.78
2022-11-08T21:51:42.915Z,100217.38
2022-11-08T21:54:09.341Z,100221.72
2022-11-08T21:56:35.791Z,100222.53
2022-11-08T21:59:03.346Z,100217.38
2022-11-08T22:01:31.020Z,100210.63
2022-11-08T22:03:59.244Z,100212.69
2022-11-08T22:06:26.745Z,100213.50
2022-11-08T22:08:53.443Z,100201.16
2022-11-08T22:11:19.966Z,100199.53
2022-11-08T22:13:46.418Z,100202.81
2022-11-08T22:16:13.861Z,100190.50
2022-11-08T22:19:03.679Z,100203.28
2022-11-08T22:21:39.331Z,100196.72
2022-11-08T22:24:10.489Z,100194.88
2022-11-08T22:26:37.190Z,100190.94
2022-11-08T22:29:03.854Z,100193.63
2022-11-08T22:31:31.117Z,100196.28
2022-11-08T22:33:57.900Z,100199.97
2022-11-08T22:36:24.388Z,100210.41
2022-11-08T22:38:50.853Z,100204.59
2022-11-08T22:41:19.471Z,100208.44
2022-11-08T22:43:46.618Z,100190.69
2022-11-08T22:46:14.101Z,100199.66
2022-11-08T22:48:40.898Z,100190.59
2022-11-08T22:51:07.521Z,100206.00
2022-11-08T22:53:34.231Z,100198.81
2022-11-08T22:56:00.948Z,100200.88
2022-11-08T22:58:28.486Z,100206.22
2022-11-08T23:00:54.962Z,100205.34
2022-11-08T23:03:21.541Z,100207.22
2022-11-08T23:05:49.903Z,100199.41
2022-11-08T23:08:17.185Z,100205.34
2022-11-08T23:11:02.278Z,100203.66
2022-11-08T23:13:47.637Z,100204.03
2022-11-08T23:16:33.563Z,100194.78
2022-11-08T23:19:20.050Z,100190.84
2022-11-08T23:22:06.104Z,100191.31
2022-11-08T23:24:32.994Z,100198.50
2022-11-08T23:27:19.644Z,100199.94
2022-11-08T23:30:04.908Z,100207.75
2022-11-08T23:32:31.696Z,100207.75
2022-11-08T23:34:58.335Z,100198.88
2022-11-08T23:37:24.846Z,100199.56
2022-11-08T23:40:09.658Z,100203.03
2022-11-08T23:42:54.584Z,100208.25
2022-11-08T23:45:21.031Z,100213.59
2022-11-08T23:47:47.580Z,100215.91
2022-11-08T23:50:14.180Z,100223.56
2022-11-08T23:52:40.566Z,100216.19
2022-11-08T23:55:07.475Z,100226.66
2022-11-08T23:57:33.864Z,100223.59
